createdAt,value
2019-05-18T00:00:35.369Z,99.90
2019-05-18T00:03:03.080Z,99.90
2019-05-18T00:05:32.283Z,99.90
2019-05-18T00:07:59.560Z,99.90
2019-05-18T00:10:30.785Z,99.90
2019-05-18T00:13:08.039Z,99.90
2019-05-18T00:15:35.469Z,99.90
2019-05-18T00:18:03.947Z,99.90
2019-05-18T00:20:33.752Z,99.90
2019-05-18T00:23:01.315Z,99.90
2019-05-18T00:25:31.203Z,99.90
2019-05-18T00:27:58.437Z,99.90
2019-05-18T00:30:25.577Z,99.90
2019-05-18T00:32:52.732Z,99.90
2019-05-18T00:35:21.217Z,99.90
2019-05-18T00:37:48.139Z,99.90
2019-05-18T00:40:15.564Z,99.90
2019-05-18T00:42:44.740Z,99.90
2019-05-18T00:45:12.519Z,99.90
2019-05-18T00:47:44.003Z,99.90
2019-05-18T00:50:12.124Z,99.90
2019-05-18T00:52:42.702Z,99.90
2019-05-18T00:55:10.086Z,99.90
2019-05-18T00:57:40.226Z,99.90
2019-05-18T01:00:08.538Z,99.90
2019-05-18T01:02:35.581Z,99.90
2019-05-18T01:05:04.608Z,99.90
2019-05-18T01:07:32.147Z,99.90
2019-05-18T01:10:03.037Z,99.90
2019-05-18T01:12:31.167Z,99.90
2019-05-18T01:14:58.601Z,99.90
2019-05-18T01:17:27.935Z,99.90
2019-05-18T01:19:55.073Z,99.90
2019-05-18T01:22:26.296Z,99.90
2019-05-18T01:24:53.238Z,99.90
2019-05-18T01:27:24.463Z,99.90
2019-05-18T01:29:52.224Z,99.90
2019-05-18T01:32:19.495Z,99.90
2019-05-18T01:34:47.297Z,99.90
2019-05-18T01:37:14.221Z,99.90
2019-05-18T01:39:43.097Z,99.90
2019-05-18T01:42:10.454Z,99.90
2019-05-18T01:44:37.751Z,99.90
2019-05-18T01:47:06.377Z,99.90
2019-05-18T01:49:34.198Z,99.90
2019-05-18T01:52:01.996Z,99.90
2019-05-18T01:54:29.905Z,99.90
2019-05-18T01:56:57.254Z,99.90
2019-05-18T01:59:28.472Z,99.90
2019-05-18T02:01:55.874Z,99.90
2019-05-18T02:04:23.816Z,99.90
2019-05-18T02:06:53.078Z,99.90
2019-05-18T02:09:21.560Z,99.90
2019-05-18T02:11:50.520Z,99.90
2019-05-18T02:14:18.315Z,99.90
2019-05-18T02:16:48.158Z,99.90
2019-05-18T02:19:15.878Z,99.90
2019-05-18T02:21:43.160Z,99.90
2019-05-18T02:24:11.806Z,99.90
2019-05-18T02:26:39.496Z,99.90
2019-05-18T02:29:11.701Z,99.90
2019-05-18T02:31:39.855Z,99.90
2019-05-18T02:34:12.242Z,99.90
2019-05-18T02:36:45.919Z,99.90
2019-05-18T02:39:14.958Z,99.90
2019-05-18T02:41:42.616Z,99.90
2019-05-18T02:44:13.203Z,99.90
2019-05-18T02:46:41.299Z,99.90
2019-05-18T02:49:13.767Z,99.90
2019-05-18T02:51:41.921Z,99.90
2019-05-18T02:54:12.961Z,99.90
2019-05-18T02:56:44.632Z,99.90
2019-05-18T02:59:16.884Z,99.90
2019-05-18T03:01:44.052Z,99.90
2019-05-18T03:04:16.387Z,99.90
2019-05-18T03:06:43.710Z,99.90
2019-05-18T03:09:15.052Z,99.90
2019-05-18T03:11:42.575Z,99.90
2019-05-18T03:14:10.022Z,99.90
2019-05-18T03:16:37.640Z,99.90
2019-05-18T03:19:08.637Z,99.90
2019-05-18T03:21:37.230Z,99.90
2019-05-18T03:24:04.291Z,99.90
2019-05-18T03:26:31.338Z,99.90
2019-05-18T03:28:59.190Z,99.90
2019-05-18T03:31:27.060Z,99.90
2019-05-18T03:33:58.696Z,99.90
2019-05-18T03:36:25.809Z,99.90
2019-05-18T03:38:54.778Z,99.90
2019-05-18T03:41:22.843Z,99.90
2019-05-18T03:43:49.870Z,99.90
2019-05-18T03:46:23.743Z,99.90
2019-05-18T03:48:48.870Z,99.90
2019-05-18T03:51:20.851Z,99.90
2019-05-18T03:53:47.909Z,99.90
2019-05-18T03:56:17.708Z,99.90
2019-05-18T03:58:45.076Z,99.90
2019-05-18T04:01:12.716Z,99.90
2019-05-18T04:03:43.441Z,99.90
2019-05-18T04:06:11.178Z,99.90
2019-05-18T04:08:43.444Z,99.90
2019-05-18T04:11:11.475Z,99.90
2019-05-18T04:13:43.272Z,99.90
2019-05-18T04:16:10.828Z,99.90
2019-05-18T04:18:43.972Z,99.90
2019-05-18T04:21:11.536Z,99.90
2019-05-18T04:23:40.031Z,99.90
2019-05-18T04:26:07.680Z,99.90
2019-05-18T04:28:44.358Z,99.90
2019-05-18T04:31:11.379Z,99.90
2019-05-18T04:33:38.395Z,99.90
2019-05-18T04:36:05.919Z,99.90
2019-05-18T04:38:34.039Z,99.90
2019-05-18T04:41:07.482Z,99.90
2019-05-18T04:43:34.544Z,99.90
2019-05-18T04:46:02.335Z,99.90
2019-05-18T04:48:29.809Z,99.90
2019-05-18T04:50:57.146Z,99.90
2019-05-18T04:53:24.719Z,99.90
2019-05-18T04:55:52.780Z,99.90
2019-05-18T04:58:21.324Z,99.90
2019-05-18T05:00:49.343Z,99.90
2019-05-18T05:03:17.370Z,99.90
2019-05-18T05:05:47.609Z,99.90
2019-05-18T05:08:14.973Z,99.90
2019-05-18T05:10:45.401Z,99.90
2019-05-18T05:13:14.870Z,99.90
2019-05-18T05:15:47.665Z,99.90
2019-05-18T05:18:15.216Z,99.90
2019-05-18T05:20:47.120Z,99.90
2019-05-18T05:23:14.935Z,99.90
2019-05-18T05:25:41.918Z,99.90
2019-05-18T05:28:10.072Z,99.90
2019-05-18T05:30:38.173Z,99.90
2019-05-18T05:33:09.955Z,99.90
2019-05-18T05:35:38.324Z,99.90
2019-05-18T05:38:10.501Z,99.90
2019-05-18T05:40:38.040Z,99.90
2019-05-18T05:43:08.659Z,99.90
2019-05-18T05:45:36.945Z,99.90
2019-05-18T05:48:04.463Z,99.90
2019-05-18T05:50:36.363Z,99.90
2019-05-18T05:53:03.487Z,99.90
2019-05-18T05:55:33.706Z,99.90
2019-05-18T05:58:01.463Z,99.90
2019-05-18T06:00:33.539Z,99.90
2019-05-18T06:03:01.607Z,99.90
2019-05-18T06:05:31.492Z,99.90
2019-05-18T06:07:59.919Z,99.90
2019-05-18T06:10:29.905Z,99.90
2019-05-18T06:12:57.893Z,99.90
2019-05-18T06:15:25.970Z,99.90
2019-05-18T06:17:54.481Z,99.90
2019-05-18T06:20:22.132Z,99.90
2019-05-18T06:22:52.769Z,99.90
2019-05-18T06:25:21.561Z,99.90
2019-05-18T06:27:51.646Z,99.90
2019-05-18T06:30:23.543Z,99.90
2019-05-18T06:32:54.171Z,99.90
2019-05-18T06:35:23.585Z,99.90
2019-05-18T06:37:55.924Z,99.90
2019-05-18T06:40:25.484Z,99.90
2019-05-18T06:42:55.572Z,99.90
2019-05-18T06:45:23.334Z,99.90
2019-05-18T06:47:50.815Z,99.90
2019-05-18T06:50:27.508Z,99.90
2019-05-18T06:52:57.850Z,99.90
2019-05-18T06:55:25.338Z,99.90
2019-05-18T06:57:58.278Z,99.90
2019-05-18T07:00:26.879Z,99.90
2019-05-18T07:02:59.631Z,99.90
2019-05-18T07:05:26.764Z,99.90
2019-05-18T07:07:57.787Z,99.90
2019-05-18T07:10:25.988Z,99.90
2019-05-18T07:12:53.221Z,99.90
2019-05-18T07:15:21.851Z,99.90
2019-05-18T07:17:48.837Z,99.90
2019-05-18T07:20:23.990Z,99.90
2019-05-18T07:22:51.216Z,99.90
2019-05-18T07:25:21.715Z,99.90
2019-05-18T07:27:48.659Z,99.90
2019-05-18T07:30:21.187Z,99.90
2019-05-18T07:32:48.525Z,99.90
2019-05-18T07:35:19.981Z,99.90
2019-05-18T07:37:49.320Z,99.90
2019-05-18T07:40:20.882Z,99.90
2019-05-18T07:42:49.002Z,99.90
2019-05-18T07:45:22.434Z,99.90
2019-05-18T07:47:49.914Z,99.90
2019-05-18T07:50:23.443Z,99.90
2019-05-18T07:52:48.238Z,99.90
2019-05-18T07:55:16.100Z,99.90
2019-05-18T07:57:46.245Z,99.90
2019-05-18T08:00:14.115Z,99.90
2019-05-18T08:02:47.308Z,99.90
2019-05-18T08:05:14.859Z,99.90
2019-05-18T08:07:45.083Z,99.90
2019-05-18T08:10:12.942Z,99.90
2019-05-18T08:12:43.403Z,99.90
2019-05-18T08:15:11.299Z,99.90
2019-05-18T08:17:38.553Z,99.90
2019-05-18T08:20:07.923Z,99.90
2019-05-18T08:22:35.285Z,99.90
2019-05-18T08:25:07.155Z,99.90
2019-05-18T08:27:34.725Z,99.90
2019-05-18T08:30:06.871Z,99.90
2019-05-18T08:32:34.333Z,99.90
2019-05-18T08:35:01.562Z,99.90
2019-05-18T08:37:35.016Z,99.90
2019-05-18T08:40:09.612Z,99.90
2019-05-18T08:42:37.280Z,99.90
2019-05-18T08:45:09.854Z,99.90
2019-05-18T08:47:37.502Z,99.90
2019-05-18T08:50:08.860Z,99.90
2019-05-18T08:52:37.298Z,99.90
2019-05-18T08:55:08.479Z,99.90
2019-05-18T08:57:38.524Z,99.90
2019-05-18T09:00:10.609Z,99.90
2019-05-18T09:02:38.360Z,99.90
2019-05-18T09:05:09.678Z,99.90
2019-05-18T09:07:37.208Z,99.90
2019-05-18T09:10:04.751Z,99.90
2019-05-18T09:12:33.276Z,99.90
2019-05-18T09:15:00.485Z,99.90
2019-05-18T09:17:30.851Z,99.90
2019-05-18T09:19:59.182Z,99.90
2019-05-18T09:25:22.515Z,99.90
2019-05-18T09:27:53.995Z,99.90
2019-05-18T09:30:21.276Z,99.90
2019-05-18T09:32:52.151Z,99.90
2019-05-18T09:35:19.880Z,99.90
2019-05-18T09:37:47.490Z,99.90
2019-05-18T09:40:15.891Z,99.90
2019-05-18T09:42:44.102Z,99.90
2019-05-18T09:45:15.010Z,99.90
2019-05-18T09:47:42.073Z,99.90
2019-05-18T09:50:13.374Z,99.90
2019-05-18T09:52:45.935Z,99.90
2019-05-18T09:55:14.290Z,99.90
2019-05-18T09:57:42.134Z,99.90
2019-05-18T10:00:10.710Z,99.90
2019-05-18T10:02:42.365Z,99.90
2019-05-18T10:05:09.872Z,98.50
2019-05-18T10:07:37.856Z,97.90
2019-05-18T10:10:05.609Z,96.20
2019-05-18T10:12:36.252Z,96.50
2019-05-18T10:15:04.250Z,95.00
2019-05-18T10:17:36.831Z,93.00
2019-05-18T10:20:04.458Z,92.50
2019-05-18T10:22:51.181Z,91.60
2019-05-18T10:25:08.677Z,91.40
2019-05-18T10:27:40.637Z,91.20
2019-05-18T10:30:08.608Z,88.70
2019-05-18T10:32:38.731Z,85.90
2019-05-18T10:35:09.207Z,78.70
2019-05-18T10:37:41.303Z,84.60
2019-05-18T10:40:08.805Z,80.00
2019-05-18T10:42:44.102Z,77.10
2019-05-18T10:45:11.998Z,74.30
2019-05-18T10:47:42.159Z,73.70
2019-05-18T10:50:09.685Z,69.60
2019-05-18T10:52:41.415Z,68.80
2019-05-18T10:55:09.505Z,71.10
2019-05-18T10:57:39.238Z,72.10
2019-05-18T11:00:08.335Z,71.50
2019-05-18T11:02:35.895Z,69.30
2019-05-18T11:05:04.023Z,69.10
2019-05-18T11:07:31.351Z,74.00
2019-05-18T11:10:02.778Z,78.40
2019-05-18T11:12:30.241Z,78.00
2019-05-18T11:14:57.334Z,81.20
2019-05-18T11:17:24.904Z,80.40
2019-05-18T11:19:52.063Z,81.70
2019-05-18T11:22:21.812Z,87.20
2019-05-18T11:24:48.937Z,85.60
2019-05-18T11:27:15.999Z,82.60
2019-05-18T11:29:45.638Z,80.90
2019-05-18T11:32:13.041Z,84.60
2019-05-18T11:34:43.088Z,82.80
2019-05-18T11:37:10.185Z,84.20
2019-05-18T11:39:38.079Z,87.10
2019-05-18T11:42:06.823Z,85.30
2019-05-18T11:44:34.564Z,86.20
2019-05-18T11:47:05.086Z,85.30
2019-05-18T11:49:33.136Z,85.00
2019-05-18T11:52:00.148Z,83.10
2019-05-18T11:54:29.344Z,79.80
2019-05-18T11:56:56.890Z,86.00
2019-05-18T11:59:28.864Z,88.00
2019-05-18T12:01:56.116Z,84.90
2019-05-18T12:04:26.007Z,82.20
2019-05-18T12:06:55.537Z,81.70
2019-05-18T12:09:24.078Z,78.00
2019-05-18T12:11:54.181Z,74.80
2019-05-18T12:14:22.248Z,74.10
2019-05-18T12:16:52.686Z,83.20
2019-05-18T12:19:20.027Z,76.30
2019-05-18T12:21:51.335Z,81.50
2019-05-18T12:24:19.150Z,82.50
2019-05-18T12:26:49.496Z,82.10
2019-05-18T12:29:17.059Z,78.40
2019-05-18T12:31:45.312Z,78.90
2019-05-18T12:34:14.525Z,77.50
2019-05-18T12:36:41.912Z,79.90
2019-05-18T12:39:12.522Z,76.20
2019-05-18T12:41:40.193Z,80.00
2019-05-18T12:46:45.861Z,80.40
2019-05-18T12:49:15.470Z,82.90
2019-05-18T12:51:42.873Z,83.90
2019-05-18T12:54:12.559Z,80.60
2019-05-18T12:56:40.525Z,82.20
2019-05-18T12:59:07.662Z,85.10
2019-05-18T13:01:36.197Z,87.00
2019-05-18T13:04:03.727Z,87.10
2019-05-18T13:06:36.352Z,86.30
2019-05-18T13:09:06.393Z,87.10
2019-05-18T13:11:36.937Z,85.50
2019-05-18T13:14:04.102Z,83.40
2019-05-18T13:16:31.291Z,86.50
2019-05-18T13:21:38.814Z,90.00
2019-05-18T13:24:06.015Z,82.20
2019-05-18T13:26:33.214Z,81.50
2019-05-18T13:29:01.232Z,84.60
2019-05-18T13:31:28.242Z,86.40
2019-05-18T13:33:59.502Z,84.20
2019-05-18T13:36:28.182Z,86.40
2019-05-18T13:38:59.084Z,86.20
2019-05-18T13:41:27.037Z,81.80
2019-05-18T13:43:54.612Z,81.10
2019-05-18T13:46:24.052Z,81.50
2019-05-18T13:48:51.780Z,83.20
2019-05-18T13:57:03.014Z,76.10
2019-05-18T13:59:31.247Z,74.00
2019-05-18T14:02:04.307Z,74.20
2019-05-18T14:04:32.848Z,73.30
2019-05-18T14:07:05.028Z,70.30
2019-05-18T14:09:33.545Z,68.80
2019-05-18T14:12:06.162Z,68.10
2019-05-18T14:14:35.422Z,71.20
2019-05-18T14:17:05.809Z,70.00
2019-05-18T14:19:34.542Z,68.60
2019-05-18T14:22:05.611Z,70.30
2019-05-18T14:24:35.983Z,66.40
2019-05-18T14:27:07.224Z,68.00
2019-05-18T14:29:34.554Z,63.70
2019-05-18T14:32:06.459Z,63.30
2019-05-18T14:34:34.406Z,62.90
2019-05-18T14:37:06.601Z,62.90
2019-05-18T14:39:34.928Z,62.60
2019-05-18T14:42:07.696Z,61.10
2019-05-18T14:44:35.489Z,61.00
2019-05-18T14:47:11.852Z,60.90
2019-05-18T14:49:39.509Z,59.80
2019-05-18T14:52:12.169Z,59.30
2019-05-18T14:54:40.372Z,57.80
2019-05-18T14:57:13.476Z,59.50
2019-05-18T14:59:41.485Z,58.50
2019-05-18T15:02:10.741Z,59.50
2019-05-18T15:04:38.621Z,60.50
2019-05-18T15:07:10.160Z,60.30
2019-05-18T15:09:37.442Z,60.40
2019-05-18T15:12:09.670Z,63.30
2019-05-18T15:14:37.606Z,63.60
2019-05-18T15:17:05.006Z,62.00
2019-05-18T15:19:32.716Z,63.50
2019-05-18T15:22:00.664Z,61.70
2019-05-18T15:24:28.849Z,64.10
2019-05-18T15:26:58.844Z,63.30
2019-05-18T15:29:26.041Z,64.20
2019-05-18T15:31:56.766Z,64.80
2019-05-18T15:34:24.724Z,64.50
2019-05-18T15:36:56.218Z,66.70
2019-05-18T15:39:25.448Z,68.20
2019-05-18T15:41:54.372Z,71.50
2019-05-18T15:44:22.083Z,70.50
2019-05-18T15:46:49.828Z,69.50
2019-05-18T15:49:22.743Z,69.20
2019-05-18T15:51:49.841Z,68.80
2019-05-18T15:54:20.961Z,70.80
2019-05-18T15:56:48.700Z,72.90
2019-05-18T15:59:21.230Z,73.90
2019-05-18T16:01:49.309Z,77.30
2019-05-18T16:04:19.811Z,77.50
2019-05-18T16:06:47.981Z,77.20
2019-05-18T16:09:18.811Z,79.30
2019-05-18T16:11:47.184Z,81.20
2019-05-18T16:14:14.808Z,81.20
2019-05-18T16:16:45.358Z,79.80
2019-05-18T16:19:13.448Z,77.30
2019-05-18T16:21:43.833Z,79.80
2019-05-18T16:24:11.425Z,80.90
2019-05-18T16:26:41.458Z,78.00
2019-05-18T16:29:09.425Z,81.00
2019-05-18T16:31:37.017Z,79.00
2019-05-18T16:34:10.611Z,79.30
2019-05-18T16:36:38.060Z,82.70
2019-05-18T16:39:07.234Z,83.20
2019-05-18T16:41:34.307Z,85.90
2019-05-18T16:44:05.270Z,84.20
2019-05-18T16:46:32.592Z,83.50
2019-05-18T16:49:04.250Z,86.50
2019-05-18T16:51:31.475Z,88.00
2019-05-18T16:53:58.864Z,90.30
2019-05-18T16:56:34.864Z,90.00
2019-05-18T16:58:56.817Z,89.60
2019-05-18T17:01:26.052Z,92.40
2019-05-18T17:03:53.905Z,90.70
2019-05-18T17:06:25.261Z,90.50
2019-05-18T17:08:51.793Z,92.50
2019-05-18T17:11:19.499Z,93.30
2019-05-18T17:13:50.281Z,95.10
2019-05-18T17:16:18.040Z,91.10
2019-05-18T17:18:49.647Z,76.30
2019-05-18T17:21:17.152Z,72.80
2019-05-18T17:23:49.031Z,74.50
2019-05-18T17:26:17.486Z,73.70
2019-05-18T17:28:48.452Z,74.50
2019-05-18T17:31:16.505Z,73.50
2019-05-18T17:33:43.799Z,74.10
2019-05-18T17:36:12.952Z,73.70
2019-05-18T17:38:40.722Z,76.00
2019-05-18T17:41:13.768Z,76.70
2019-05-18T17:43:41.213Z,77.60
2019-05-18T17:46:13.105Z,79.20
2019-05-18T17:48:40.969Z,80.20
2019-05-18T17:51:14.177Z,80.80
2019-05-18T17:53:41.934Z,83.30
2019-05-18T17:56:13.766Z,83.90
2019-05-18T17:58:41.472Z,84.80
2019-05-18T18:01:13.982Z,85.50
2019-05-18T18:03:41.038Z,88.00
2019-05-18T18:06:14.774Z,90.00
2019-05-18T18:08:42.943Z,90.60
2019-05-18T18:11:15.988Z,90.80
2019-05-18T18:13:43.428Z,90.20
2019-05-18T18:16:15.751Z,89.30
2019-05-18T18:18:42.658Z,89.80
2019-05-18T18:21:14.626Z,90.10
2019-05-18T18:23:42.700Z,87.80
2019-05-18T18:26:14.070Z,89.30
2019-05-18T18:28:41.782Z,90.30
2019-05-18T18:31:09.757Z,91.50
2019-05-18T18:33:39.305Z,94.30
2019-05-18T18:36:06.690Z,98.40
2019-05-18T18:38:38.027Z,99.90
2019-05-18T18:41:05.529Z,99.90
2019-05-18T18:43:36.592Z,99.90
2019-05-18T18:46:04.359Z,99.90
2019-05-18T18:48:31.941Z,99.90
2019-05-18T18:51:01.617Z,99.90
2019-05-18T18:53:29.127Z,99.90
2019-05-18T18:56:00.226Z,99.90
2019-05-18T18:58:27.555Z,99.90
2019-05-18T19:01:00.212Z,99.90
2019-05-18T19:03:28.414Z,99.90
2019-05-18T19:05:59.556Z,99.90
2019-05-18T19:08:27.530Z,99.90
2019-05-18T19:10:54.708Z,99.90
2019-05-18T19:13:23.125Z,99.90
2019-05-18T19:15:50.391Z,99.90
2019-05-18T19:18:22.213Z,99.90
2019-05-18T19:20:49.725Z,99.90
2019-05-18T19:23:22.459Z,99.90
2019-05-18T19:25:49.733Z,99.90
2019-05-18T19:28:18.379Z,99.90
2019-05-18T19:30:46.825Z,99.90
2019-05-18T19:33:15.255Z,99.90
2019-05-18T19:35:43.687Z,99.90
2019-05-18T19:38:10.805Z,99.90
2019-05-18T19:40:39.567Z,99.90
2019-05-18T19:43:07.196Z,99.90
2019-05-18T19:45:34.365Z,99.90
2019-05-18T19:48:06.348Z,99.90
2019-05-18T19:50:35.599Z,99.90
2019-05-18T19:53:06.105Z,99.90
2019-05-18T19:55:33.430Z,99.90
2019-05-18T19:58:08.840Z,99.90
2019-05-18T20:00:32.887Z,99.90
2019-05-18T20:03:00.497Z,99.90
2019-05-18T20:05:29.714Z,99.90
2019-05-18T20:07:57.212Z,99.90
2019-05-18T20:10:27.437Z,99.90
2019-05-18T20:12:55.164Z,99.90
2019-05-18T20:15:23.311Z,99.90
2019-05-18T20:17:52.598Z,99.90
2019-05-18T20:20:19.968Z,99.90
2019-05-18T20:22:49.992Z,99.90
2019-05-18T20:25:17.179Z,99.90
2019-05-18T20:27:48.060Z,99.90
2019-05-18T20:30:15.615Z,99.90
2019-05-18T20:32:43.483Z,99.90
2019-05-18T20:35:11.807Z,99.90
2019-05-18T20:37:39.502Z,99.90
2019-05-18T20:40:11.797Z,99.90
2019-05-18T20:42:39.111Z,99.90
2019-05-18T20:45:11.548Z,99.90
2019-05-18T20:47:39.069Z,99.90
2019-05-18T20:50:09.030Z,99.90
2019-05-18T20:52:37.664Z,99.90
2019-05-18T20:55:05.256Z,99.90
2019-05-18T20:57:35.774Z,99.90
2019-05-18T21:00:03.830Z,99.90
2019-05-18T21:02:36.458Z,99.90
2019-05-18T21:05:04.448Z,99.90
2019-05-18T21:07:34.020Z,99.90
2019-05-18T21:10:02.785Z,99.90
2019-05-18T21:12:34.166Z,99.90
2019-05-18T21:15:02.158Z,99.90
2019-05-18T21:17:33.173Z,99.90
2019-05-18T21:20:01.596Z,99.90
2019-05-18T21:22:34.075Z,99.90
2019-05-18T21:25:01.533Z,99.90
2019-05-18T21:27:29.339Z,99.90
2019-05-18T21:29:56.896Z,99.90
2019-05-18T21:32:25.619Z,99.90
2019-05-18T21:34:57.499Z,99.90
2019-05-18T21:37:24.701Z,99.90
2019-05-18T21:39:54.418Z,99.90
2019-05-18T21:42:22.162Z,99.90
2019-05-18T21:44:50.129Z,99.90
2019-05-18T21:47:18.116Z,99.90
2019-05-18T21:49:45.828Z,99.90
2019-05-18T21:52:14.594Z,99.90
2019-05-18T21:54:42.542Z,99.90
2019-05-18T21:57:09.648Z,99.90
2019-05-18T21:59:40.713Z,99.90
2019-05-18T22:02:08.250Z,99.90
2019-05-18T22:04:41.482Z,99.90
2019-05-18T22:07:08.651Z,99.90
2019-05-18T22:09:40.091Z,99.90
2019-05-18T22:12:07.309Z,99.90
2019-05-18T22:14:34.441Z,99.90
2019-05-18T22:31:10.268Z,99.90
2019-05-18T22:33:43.744Z,99.90
2019-05-18T22:36:11.386Z,99.90
2019-05-18T22:38:44.008Z,99.90
2019-05-18T22:41:11.544Z,99.90
2019-05-18T22:43:38.720Z,99.90
2019-05-18T22:46:07.466Z,99.90
2019-05-18T22:48:41.298Z,99.90
2019-05-18T22:51:04.279Z,99.90
2019-05-18T22:53:32.002Z,99.90
2019-05-18T22:55:59.604Z,99.90
2019-05-18T22:58:27.088Z,99.90
2019-05-18T23:00:54.769Z,99.90
2019-05-18T23:03:22.308Z,99.90
2019-05-18T23:05:54.496Z,99.90
2019-05-18T23:08:21.857Z,99.90
2019-05-18T23:10:49.461Z,99.90
2019-05-18T23:13:16.433Z,99.90
2019-05-18T23:15:43.952Z,99.90
2019-05-18T23:18:11.682Z,99.90
2019-05-18T23:20:39.582Z,99.90
2019-05-18T23:23:07.617Z,99.90
2019-05-18T23:25:34.866Z,99.90
2019-05-18T23:28:02.776Z,99.90
2019-05-18T23:30:30.120Z,99.90
2019-05-18T23:32:58.051Z,99.90
2019-05-18T23:35:25.923Z,99.90
2019-05-18T23:37:53.701Z,99.90
2019-05-18T23:40:21.243Z,99.90
2019-05-18T23:42:49.331Z,99.90
2019-05-18T23:45:16.426Z,99.90
2019-05-18T23:47:44.017Z,99.90
2019-05-18T23:50:11.705Z,99.90
2019-05-18T23:52:38.754Z,99.90
2019-05-18T23:55:06.726Z,99.90
2019-05-18T23:57:33.826Z,99.90
